Time;durP1;ratioP1;P1;durP2;ratioP2;P2;SDS_P1;SDS_P2;PMS_P1;PMS_P2;Temp;Humidity;BMP_temperature;BMP_pressure;BME280_temperature;BME280_humidity;BME280_pressure;Samples;Min_cycle;Max_cycle;Signal;HPM_P1;HPM_P2
2023/12/13 00:01:15;;;;;;;31.53;20.53;;;2.70;99.90;1.60;99402;;;;565694;249;24059;-78
2023/12/13 00:03:39;;;;;;;28.53;19.17;;;2.60;99.90;1.60;99403;;;;567490;249;24081;-78
2023/12/13 00:06:07;;;;;;;28.77;18.03;;;2.60;99.90;1.60;99409;;;;569058;249;24091;-84
2023/12/13 00:08:36;;;;;;;25.97;15.53;;;2.60;99.90;1.60;99404;;;;568574;245;24145;-82
2023/12/13 00:11:04;;;;;;;26.07;15.63;;;2.60;99.90;1.60;99404;;;;566234;249;24162;-84
2023/12/13 00:13:31;;;;;;;23.90;13.80;;;2.60;99.90;1.60;99401;;;;568364;249;24096;-82
2023/12/13 00:15:59;;;;;;;20.50;13.27;;;2.60;99.90;1.60;99401;;;;569020;249;24073;-81
2023/12/13 00:18:31;;;;;;;18.83;12.57;;;2.60;99.90;1.60;99398;;;;569011;249;24074;-82
2023/12/13 00:20:56;;;;;;;18.10;11.97;;;2.60;99.90;1.60;99403;;;;566820;249;24062;-81
2023/12/13 00:23:24;;;;;;;21.80;12.60;;;2.60;99.90;1.60;99411;;;;568669;249;24067;-82
2023/12/13 00:25:52;;;;;;;20.57;12.77;;;2.60;99.90;1.60;99411;;;;566681;249;24067;-82
2023/12/13 00:28:20;;;;;;;15.53;12.07;;;2.60;99.90;1.60;99406;;;;566563;249;24046;-81
2023/12/13 00:30:49;;;;;;;20.10;12.67;;;2.60;99.90;1.60;99411;;;;565997;249;24051;-82
2023/12/13 00:33:16;;;;;;;16.90;11.07;;;2.60;99.90;1.50;99420;;;;565930;249;24039;-79
2023/12/13 00:35:44;;;;;;;18.97;12.10;;;2.60;99.90;1.50;99422;;;;567604;249;24098;-78
2023/12/13 00:38:17;;;;;;;21.63;13.27;;;2.50;99.90;1.50;99417;;;;565670;249;24076;-80
2023/12/13 00:40:41;;;;;;;25.40;15.30;;;2.50;99.90;1.50;99416;;;;567479;249;24140;-78
2023/12/13 00:43:09;;;;;;;25.63;15.13;;;2.50;99.90;1.50;99413;;;;567477;249;24083;-79
2023/12/13 00:45:37;;;;;;;27.07;16.83;;;2.50;99.90;1.50;99410;;;;567825;249;24118;-78
2023/12/13 00:48:05;;;;;;;26.30;14.27;;;2.50;99.90;1.50;99408;;;;565659;249;24092;-78
2023/12/13 00:50:33;;;;;;;17.43;11.80;;;2.60;99.90;1.50;99412;;;;567633;249;24059;-79
2023/12/13 00:53:01;;;;;;;17.00;10.77;;;2.50;99.90;1.50;99407;;;;566346;248;24045;-79
2023/12/13 00:55:29;;;;;;;14.07;10.17;;;2.50;99.90;1.50;99414;;;;568831;248;24049;-78
2023/12/13 00:58:00;;;;;;;17.10;11.07;;;2.50;99.90;1.50;99411;;;;566697;248;24082;-78
2023/12/13 01:00:25;;;;;;;14.40;10.77;;;2.50;99.90;1.50;99417;;;;568515;248;24098;-77
2023/12/13 01:02:53;;;;;;;16.27;10.70;;;2.60;99.90;1.60;99401;;;;567224;248;24072;-78
2023/12/13 01:05:21;;;;;;;14.53;9.90;;;2.60;99.90;1.50;99404;;;;567299;248;24056;-78
2023/12/13 01:07:52;;;;;;;14.90;9.73;;;2.60;99.90;1.50;99399;;;;563944;248;24114;-78
2023/12/13 01:10:19;;;;;;;15.00;9.83;;;2.60;99.90;1.50;99398;;;;567950;249;24089;-78
2023/12/13 01:12:45;;;;;;;11.67;8.80;;;2.60;99.90;1.50;99396;;;;567385;249;24102;-80
2023/12/13 01:15:13;;;;;;;14.03;9.20;;;2.50;99.90;1.50;99391;;;;568008;249;24046;-80
2023/12/13 01:17:41;;;;;;;15.03;10.50;;;2.40;99.90;1.50;99393;;;;567123;249;24051;-78
2023/12/13 01:20:11;;;;;;;16.70;10.60;;;2.60;99.90;1.50;99387;;;;568003;249;24067;-79
2023/12/13 01:22:39;;;;;;;18.57;10.70;;;2.50;99.90;1.50;99384;;;;563844;247;24119;-79
2023/12/13 01:25:08;;;;;;;13.97;9.53;;;2.50;99.90;1.50;99381;;;;568063;249;24045;-79
2023/12/13 01:27:35;;;;;;;13.13;8.53;;;2.50;99.90;1.50;99380;;;;567926;249;24136;-77
2023/12/13 01:30:07;;;;;;;10.43;8.10;;;2.50;99.90;1.50;99373;;;;566673;249;24062;-80
2023/12/13 01:32:32;;;;;;;12.53;7.87;;;2.50;99.90;1.50;99375;;;;568417;249;24067;-79
2023/12/13 01:34:59;;;;;;;13.10;8.50;;;2.50;99.90;1.50;99382;;;;567984;249;24082;-83
2023/12/13 01:37:27;;;;;;;13.97;10.33;;;2.50;99.90;1.50;99384;;;;566417;249;24139;-79
2023/12/13 01:39:56;;;;;;;16.23;10.73;;;2.50;99.90;1.50;99382;;;;567957;249;24149;-83
2023/12/13 01:42:23;;;;;;;18.57;12.73;;;2.50;99.90;1.50;99388;;;;565651;249;24102;-82
2023/12/13 01:44:51;;;;;;;19.05;10.52;;;2.50;99.90;1.40;99380;;;;563587;249;35223;-82
2023/12/13 01:47:22;;;;;;;16.17;7.33;;;2.50;99.90;1.40;99376;;;;568574;249;24078;-82
2023/12/13 01:49:47;;;;;;;13.60;8.07;;;2.50;99.90;1.40;99379;;;;568092;249;24108;-83
2023/12/13 01:52:15;;;;;;;8.57;5.43;;;2.50;99.90;1.40;99388;;;;568565;249;24191;-80
2023/12/13 01:54:43;;;;;;;10.77;7.60;;;2.50;99.90;1.50;99380;;;;568597;249;24156;-80
2023/12/13 01:57:14;;;;;;;15.00;7.77;;;2.80;99.90;1.50;99384;;;;566768;249;24060;-79
2023/12/13 01:59:42;;;;;;;12.13;7.67;;;4.90;99.90;1.50;99382;;;;567661;249;24082;-80
2023/12/13 02:02:09;;;;;;;14.63;8.37;;;2.50;99.90;1.50;99382;;;;567630;249;24094;-84
2023/12/13 02:04:38;;;;;;;17.57;11.63;;;2.50;99.90;1.50;99379;;;;576748;248;24149;-79
2023/12/13 02:07:05;;;;;;;16.90;11.43;;;2.50;99.90;1.50;99373;;;;568745;248;24071;-80
2023/12/13 02:09:30;;;;;;;17.47;12.47;;;2.50;99.90;1.50;99379;;;;568725;248;24073;-84
2023/12/13 02:11:58;;;;;;;14.77;10.83;;;2.50;99.90;1.50;99371;;;;566206;248;24067;-83
2023/12/13 02:14:26;;;;;;;16.47;12.00;;;2.50;99.90;1.50;99366;;;;568654;248;24141;-82
2023/12/13 02:16:54;;;;;;;19.50;13.80;;;2.50;99.90;1.50;99370;;;;566407;248;24074;-80
2023/12/13 02:19:22;;;;;;;19.10;13.73;;;2.50;99.90;1.50;99373;;;;566790;248;24119;-79
2023/12/13 02:21:50;;;;;;;18.17;13.60;;;2.50;99.90;1.40;99361;;;;568569;248;24051;-79
2023/12/13 02:24:18;;;;;;;19.93;13.33;;;2.50;99.90;1.40;99361;;;;565886;249;24121;-79
2023/12/13 02:26:46;;;;;;;16.77;12.87;;;2.40;99.90;1.50;99353;;;;567791;249;24159;-79
2023/12/13 02:29:14;;;;;;;15.23;11.40;;;2.50;99.90;1.50;99338;;;;567878;249;24062;-77
2023/12/13 02:31:42;;;;;;;20.40;10.60;;;2.50;99.90;1.50;99330;;;;566224;249;24130;-76
2023/12/13 02:34:10;;;;;;;15.50;9.20;;;2.50;99.90;1.40;99329;;;;567761;249;24072;-79
2023/12/13 02:36:38;;;;;;;13.33;8.83;;;2.40;99.90;1.40;99324;;;;565984;249;24069;-79
2023/12/13 02:39:07;;;;;;;12.47;7.40;;;2.30;99.90;1.30;99329;;;;567967;249;24110;-78
2023/12/13 02:41:34;;;;;;;8.27;6.37;;;2.30;99.90;1.30;99333;;;;567168;249;24040;-78
2023/12/13 02:44:03;;;;;;;8.23;5.77;;;2.20;99.90;1.20;99340;;;;565309;249;24097;-79
2023/12/13 02:46:31;;;;;;;7.77;6.30;;;2.20;99.90;1.20;99327;;;;565625;249;24078;-79
2023/12/13 02:49:00;;;;;;;8.73;6.03;;;2.20;99.90;1.20;99338;;;;565596;249;24059;-77
2023/12/13 02:51:28;;;;;;;9.77;6.53;;;2.20;99.90;1.20;99353;;;;565590;249;24061;-77
2023/12/13 02:53:56;;;;;;;7.10;5.80;;;2.20;99.90;1.20;99353;;;;565523;249;24110;-78
2023/12/13 02:56:23;;;;;;;9.37;7.13;;;2.20;99.90;1.20;99351;;;;565579;249;24067;-79
2023/12/13 02:58:51;;;;;;;9.67;6.73;;;2.20;99.90;1.20;99349;;;;565760;249;24074;-78
2023/12/13 03:01:20;;;;;;;10.87;7.13;;;2.20;99.90;1.10;99339;;;;565781;249;24074;-77
2023/12/13 03:03:48;;;;;;;12.03;7.00;;;2.20;99.90;1.10;99345;;;;565539;249;25235;-79
2023/12/13 03:06:16;;;;;;;6.93;5.93;;;2.10;99.90;1.10;99357;;;;565592;249;24075;-81
2023/12/13 03:08:44;;;;;;;9.00;6.53;;;2.10;99.90;1.10;99368;;;;565848;249;24071;-79
2023/12/13 03:11:12;;;;;;;10.37;7.33;;;2.10;99.90;1.10;99370;;;;567402;249;24084;-78
2023/12/13 03:13:39;;;;;;;9.27;7.07;;;2.10;99.90;1.10;99374;;;;565619;249;24052;-80
2023/12/13 03:16:07;;;;;;;9.43;7.10;;;2.10;99.90;1.20;99365;;;;566437;248;24101;-79
2023/12/13 03:18:35;;;;;;;11.47;8.30;;;2.20;99.90;1.20;99360;;;;568746;248;24058;-79
2023/12/13 03:21:03;;;;;;;10.00;7.33;;;2.20;99.90;1.30;99357;;;;566866;246;24073;-79
2023/12/13 03:23:31;;;;;;;11.07;7.00;;;2.30;99.90;1.30;99365;;;;566550;248;24150;-79
2023/12/13 03:25:59;;;;;;;8.70;6.57;;;2.30;99.90;1.30;99373;;;;566441;248;24108;-78
2023/12/13 03:28:28;;;;;;;10.87;7.10;;;2.40;99.90;1.30;99384;;;;566262;248;24124;-78
2023/12/13 03:30:56;;;;;;;9.80;7.40;;;2.40;99.90;1.40;99386;;;;566177;248;24060;-78
2023/12/13 03:33:23;;;;;;;11.97;7.03;;;2.40;99.90;1.40;99387;;;;566089;248;24046;-79
2023/12/13 03:35:51;;;;;;;8.53;6.20;;;2.50;99.90;1.40;99365;;;;566288;249;24114;-79
2023/12/13 03:38:19;;;;;;;9.00;6.60;;;2.50;99.90;1.40;99361;;;;566468;249;24086;-81
2023/12/13 03:40:47;;;;;;;10.50;7.17;;;2.50;99.90;1.40;99370;;;;566844;249;24090;-79
2023/12/13 03:43:15;;;;;;;10.73;6.77;;;2.50;99.90;1.50;99376;;;;568169;249;24104;-79
2023/12/13 03:45:43;;;;;;;10.83;6.80;;;2.50;99.90;1.50;99386;;;;566077;249;24069;-81
2023/12/13 03:48:11;;;;;;;11.73;7.33;;;2.60;99.90;1.50;99382;;;;566352;249;24063;-78
2023/12/13 03:50:39;;;;;;;8.50;6.13;;;2.50;99.90;1.50;99383;;;;566020;249;25085;-78
2023/12/13 03:53:07;;;;;;;10.27;7.10;;;2.50;99.90;1.50;99369;;;;565638;249;24059;-80
2023/12/13 03:55:35;;;;;;;8.43;6.17;;;2.50;99.90;1.50;99367;;;;565623;249;24067;-78
2023/12/13 03:58:02;;;;;;;12.27;6.93;;;2.60;99.90;1.50;99371;;;;565597;249;24055;-79
2023/12/13 04:00:31;;;;;;;13.30;7.03;;;2.60;99.90;1.50;99383;;;;565653;249;24054;-79
2023/12/13 04:02:59;;;;;;;9.60;5.97;;;2.60;99.90;1.60;99375;;;;565622;249;24110;-83
2023/12/13 04:05:30;;;;;;;10.90;6.10;;;2.60;99.90;1.60;99375;;;;565605;249;24084;-78
2023/12/13 04:07:55;;;;;;;9.30;6.67;;;2.60;99.90;1.60;99367;;;;571158;249;24085;-78
2023/12/13 04:10:23;;;;;;;12.63;5.60;;;2.60;99.90;1.60;99363;;;;565442;249;24073;-78
2023/12/13 04:12:51;;;;;;;10.00;6.67;;;2.60;99.90;1.60;99368;;;;567394;249;24064;-77
2023/12/13 04:15:18;;;;;;;12.93;6.50;;;2.60;99.90;1.60;99376;;;;565308;249;24113;-78
2023/12/13 04:17:46;;;;;;;11.37;6.17;;;2.70;99.90;1.60;99365;;;;567443;249;24077;-78
2023/12/13 04:20:14;;;;;;;11.97;5.67;;;2.70;99.90;1.70;99365;;;;565651;249;24071;-79
2023/12/13 04:22:42;;;;;;;7.73;5.10;;;2.70;99.90;1.70;99357;;;;565718;249;24059;-77
2023/12/13 04:25:10;;;;;;;6.17;4.37;;;2.70;99.90;1.70;99350;;;;567638;249;24101;-79
2023/12/13 04:27:39;;;;;;;4.47;3.70;;;2.70;99.90;1.70;99363;;;;566357;248;24119;-78
2023/12/13 04:30:08;;;;;;;9.73;5.53;;;2.70;99.90;1.70;99357;;;;566850;248;24050;-78
2023/12/13 04:32:35;;;;;;;8.37;5.17;;;2.70;99.90;1.70;99361;;;;568438;248;24070;-79
2023/12/13 04:35:03;;;;;;;7.73;5.50;;;2.70;99.90;1.70;99365;;;;566404;248;24063;-79
2023/12/13 04:37:31;;;;;;;6.37;4.33;;;2.70;99.90;1.70;99360;;;;566269;248;24057;-78
2023/12/13 04:39:59;;;;;;;11.83;5.07;;;2.70;99.90;1.70;99352;;;;566281;248;24095;-81
2023/12/13 04:42:30;;;;;;;5.83;4.40;;;2.70;99.90;1.70;99354;;;;568192;248;24058;-79
2023/12/13 04:44:58;;;;;;;6.13;4.60;;;2.70;99.90;1.70;99350;;;;567617;248;25108;-79
2023/12/13 04:47:23;;;;;;;5.63;4.53;;;2.70;99.90;1.70;99353;;;;567595;249;24075;-78
2023/12/13 04:49:51;;;;;;;5.93;4.13;;;2.70;99.90;1.70;99355;;;;566457;249;24038;-79
2023/12/13 04:52:19;;;;;;;7.47;4.07;;;2.80;99.90;1.70;99350;;;;566758;249;24094;-82
2023/12/13 04:54:47;;;;;;;6.40;4.57;;;2.70;99.90;1.70;99352;;;;566469;249;24056;-79
2023/12/13 04:57:15;;;;;;;8.40;4.63;;;2.70;99.90;1.70;99344;;;;568145;249;24065;-81
2023/12/13 04:59:43;;;;;;;5.73;3.30;;;2.70;99.90;1.80;99347;;;;566351;249;24067;-83
2023/12/13 05:02:11;;;;;;;4.87;3.07;;;2.70;99.90;1.70;99345;;;;566602;249;24061;-81
2023/12/13 05:04:40;;;;;;;6.07;3.10;;;2.70;99.90;1.80;99349;;;;566466;249;24098;-82
2023/12/13 05:07:08;;;;;;;7.83;4.13;;;2.80;99.90;1.80;99355;;;;566383;249;24062;-80
2023/12/13 05:09:38;;;;;;;9.03;6.10;;;2.80;99.90;1.80;99357;;;;560560;249;35200;-78
2023/12/13 05:12:03;;;;;;;15.13;7.00;;;2.80;99.90;1.80;99357;;;;562452;249;35156;-80
2023/12/13 05:14:31;;;;;;;10.43;6.90;;;2.80;99.90;1.80;99351;;;;558188;249;35174;-79
2023/12/13 05:16:59;;;;;;;10.07;5.50;;;2.80;99.90;1.80;99351;;;;565408;249;24198;-79
2023/12/13 05:19:27;;;;;;;6.30;4.20;;;2.90;99.90;1.90;99345;;;;567308;249;24055;-80
2023/12/13 05:21:55;;;;;;;4.90;3.43;;;2.90;99.90;1.90;99347;;;;565593;249;24164;-79
2023/12/13 05:24:24;;;;;;;4.93;3.40;;;2.90;99.90;1.90;99341;;;;567782;249;24130;-78
2023/12/13 05:26:52;;;;;;;7.87;3.63;;;2.90;99.90;1.90;99347;;;;565685;249;24064;-79
2023/12/13 05:29:21;;;;;;;15.53;7.73;;;2.90;99.90;1.80;99353;;;;565722;249;24110;-79
2023/12/13 05:31:49;;;;;;;14.23;5.70;;;2.90;99.90;1.80;99336;;;;565595;249;24089;-80
2023/12/13 05:34:16;;;;;;;14.93;7.30;;;2.90;99.90;1.90;99353;;;;565643;249;24057;-79
2023/12/13 05:36:47;;;;;;;20.57;9.30;;;2.80;99.90;1.80;99350;;;;565649;249;24062;-80
2023/12/13 05:39:16;;;;;;;25.97;10.13;;;2.90;99.90;1.80;99356;;;;568318;248;24065;-79
2023/12/13 05:41:43;;;;;;;18.47;9.33;;;2.80;99.90;1.80;99342;;;;566736;248;24076;-78
2023/12/13 05:44:11;;;;;;;15.90;6.90;;;2.80;99.90;1.80;99327;;;;568518;248;24054;-79
2023/12/13 05:46:39;;;;;;;7.30;4.73;;;2.80;99.90;1.80;99328;;;;568120;248;24089;-79
2023/12/13 05:49:07;;;;;;;9.33;4.80;;;2.80;99.90;1.80;99331;;;;565894;248;24051;-78
2023/12/13 05:51:35;;;;;;;16.17;7.03;;;2.80;99.90;1.80;99339;;;;568292;248;24073;-80
2023/12/13 05:54:03;;;;;;;20.77;8.83;;;2.80;99.90;1.70;99338;;;;566240;248;24050;-80
2023/12/13 05:56:31;;;;;;;7.17;4.33;;;2.80;99.90;1.70;99337;;;;566292;248;24145;-78
2023/12/13 05:58:59;;;;;;;9.43;6.40;;;2.70;99.90;1.70;99337;;;;567098;249;24082;-79
2023/12/13 06:01:27;;;;;;;13.30;7.83;;;2.70;99.90;1.70;99344;;;;565974;249;24092;-80
2023/12/13 06:03:55;;;;;;;12.47;8.57;;;2.70;99.90;1.70;99343;;;;565991;249;24067;-77
2023/12/13 06:06:23;;;;;;;13.63;8.20;;;2.70;99.90;1.70;99344;;;;565904;249;24070;-78
2023/12/13 06:08:51;;;;;;;10.67;6.63;;;2.80;99.90;1.80;99348;;;;565758;249;24075;-79
2023/12/13 06:11:19;;;;;;;12.13;8.30;;;2.70;99.90;1.70;99343;;;;568193;249;24051;-79
2023/12/13 06:13:47;;;;;;;15.43;9.70;;;2.70;99.90;1.70;99333;;;;568411;249;24070;-80
2023/12/13 06:16:15;;;;;;;15.83;9.37;;;2.70;99.90;1.70;99344;;;;563722;249;24065;-81
2023/12/13 06:18:43;;;;;;;16.37;10.47;;;2.70;99.90;1.70;99339;;;;565725;249;24124;-78
2023/12/13 06:21:11;;;;;;;21.13;12.03;;;2.70;99.90;1.80;99338;;;;566162;249;24102;-78
2023/12/13 06:23:38;;;;;;;17.73;10.73;;;2.70;99.90;1.80;99337;;;;565879;249;24071;-78
2023/12/13 06:26:06;;;;;;;13.37;9.03;;;2.80;99.90;1.70;99341;;;;565853;249;24071;-78
2023/12/13 06:28:38;;;;;;;18.70;10.27;;;2.70;99.90;1.70;99342;;;;567662;249;24093;-79
2023/12/13 06:31:05;;;;;;;12.63;8.80;;;2.70;99.90;1.70;99337;;;;576191;246;24075;-78
2023/12/13 06:33:33;;;;;;;13.30;7.40;;;2.70;99.90;1.70;99332;;;;567619;249;24096;-79
2023/12/13 06:36:02;;;;;;;12.63;6.73;;;2.70;99.90;1.70;99332;;;;565663;249;24098;-80
2023/12/13 06:38:29;;;;;;;11.03;7.07;;;2.70;99.90;1.70;99334;;;;565733;247;24071;-78
2023/12/13 06:40:57;;;;;;;11.33;6.53;;;2.70;99.90;1.60;99333;;;;565635;249;24059;-78
2023/12/13 06:43:25;;;;;;;10.17;6.20;;;2.60;99.90;1.70;99322;;;;565641;249;24052;-77
2023/12/13 06:45:53;;;;;;;10.77;6.73;;;2.60;99.90;1.60;99320;;;;565656;249;24055;-79
2023/12/13 06:48:25;;;;;;;11.60;5.93;;;2.60;99.90;1.60;99330;;;;567306;249;24098;-79
2023/12/13 06:50:49;;;;;;;11.87;6.77;;;2.60;99.90;1.60;99332;;;;567700;248;24134;-78
2023/12/13 06:53:17;;;;;;;10.30;6.53;;;2.60;99.90;1.50;99328;;;;568831;248;24203;-79
2023/12/13 06:55:45;;;;;;;8.33;5.63;;;2.50;99.90;1.60;99327;;;;566610;248;24057;-80
2023/12/13 06:58:16;;;;;;;12.40;6.43;;;2.60;99.90;1.60;99324;;;;566501;248;24074;-80
2023/12/13 07:00:41;;;;;;;15.53;9.13;;;2.60;99.90;1.50;99336;;;;566139;248;24094;-79
2023/12/13 07:03:09;;;;;;;14.93;10.47;;;2.50;99.90;1.50;99337;;;;566134;248;24055;-80
2023/12/13 07:05:37;;;;;;;15.93;9.20;;;2.50;99.90;1.50;99331;;;;568237;248;24051;-81
2023/12/13 07:08:08;;;;;;;12.70;8.90;;;2.50;99.90;1.50;99331;;;;566304;248;24097;-80
2023/12/13 07:10:33;;;;;;;11.07;7.47;;;2.50;99.90;1.50;99322;;;;567442;249;24085;-79
2023/12/13 07:13:01;;;;;;;15.90;8.77;;;2.50;99.90;1.50;99325;;;;565586;249;24115;-79
2023/12/13 07:15:29;;;;;;;14.33;8.37;;;2.50;99.90;1.50;99331;;;;565769;249;24144;-78
2023/12/13 07:17:56;;;;;;;14.17;8.57;;;2.50;99.90;1.50;99316;;;;568042;249;24068;-81
2023/12/13 07:20:24;;;;;;;11.57;8.43;;;2.50;99.90;1.50;99321;;;;568087;249;24053;-79
2023/12/13 07:22:53;;;;;;;10.27;7.37;;;2.50;99.90;1.50;99319;;;;566031;249;24051;-80
2023/12/13 07:25:20;;;;;;;10.87;7.33;;;2.60;99.90;1.60;99319;;;;567596;249;24074;-78
2023/12/13 07:27:48;;;;;;;13.17;8.43;;;2.60;99.90;1.60;99327;;;;565647;249;24070;-79
2023/12/13 07:30:16;;;;;;;10.23;7.70;;;2.60;99.90;1.60;99327;;;;564938;249;24077;-78
2023/12/13 07:32:47;;;;;;;13.00;8.73;;;2.60;99.90;1.60;99327;;;;565410;249;24053;-82
2023/12/13 07:35:15;;;;;;;13.57;9.20;;;2.60;99.90;1.60;99328;;;;565459;249;24088;-80
2023/12/13 07:37:43;;;;;;;11.07;8.30;;;2.60;99.90;1.70;99321;;;;565081;249;24138;-78
2023/12/13 07:40:10;;;;;;;11.17;8.43;;;2.70;99.90;1.70;99320;;;;565328;249;24058;-78
2023/12/13 07:42:38;;;;;;;11.37;8.43;;;2.70;99.90;1.80;99320;;;;567298;249;24103;-78
2023/12/13 07:45:10;;;;;;;8.80;6.90;;;2.80;99.90;1.80;99327;;;;567495;249;24055;-78
2023/12/13 07:47:35;;;;;;;6.87;6.07;;;2.80;99.90;1.80;99325;;;;567228;249;24078;-78
2023/12/13 07:50:03;;;;;;;9.23;6.73;;;2.80;99.90;1.90;99335;;;;567370;249;24078;-78
2023/12/13 07:52:32;;;;;;;7.83;6.23;;;2.80;99.90;1.90;99328;;;;576322;246;24097;-79
2023/12/13 07:54:59;;;;;;;11.40;5.03;;;2.90;99.90;2.00;99332;;;;566180;249;24078;-83
2023/12/13 07:57:27;;;;;;;10.77;5.87;;;3.00;99.90;2.00;99326;;;;567110;249;24107;-78
2023/12/13 07:59:56;;;;;;;9.97;4.90;;;3.00;99.90;2.00;99326;;;;566145;249;24054;-78
2023/12/13 08:02:27;;;;;;;7.73;5.63;;;3.00;99.90;2.00;99333;;;;566876;248;24061;-78
2023/12/13 08:04:52;;;;;;;8.23;4.67;;;3.00;99.90;2.10;99322;;;;577712;245;24120;-78
2023/12/13 08:07:20;;;;;;;9.33;5.13;;;3.10;99.90;2.10;99322;;;;567062;248;24123;-78
2023/12/13 08:09:47;;;;;;;9.60;6.50;;;3.10;99.90;2.20;99315;;;;566815;248;24066;-79
2023/12/13 08:12:15;;;;;;;8.67;5.00;;;3.20;99.90;2.20;99326;;;;568371;248;24057;-78
2023/12/13 08:14:43;;;;;;;8.00;5.20;;;3.20;99.90;2.30;99328;;;;568497;248;24086;-78
2023/12/13 08:17:11;;;;;;;11.83;5.37;;;3.30;99.90;2.40;99328;;;;566559;248;24059;-79
2023/12/13 08:19:39;;;;;;;9.60;6.70;;;3.40;99.90;2.40;99327;;;;568933;248;24067;-80
2023/12/13 08:22:07;;;;;;;8.77;4.83;;;3.40;99.90;2.50;99322;;;;566566;249;24051;-77
2023/12/13 08:24:35;;;;;;;7.27;5.60;;;3.50;99.90;2.50;99319;;;;566113;249;24068;-79
2023/12/13 08:27:06;;;;;;;7.40;4.80;;;3.50;99.90;2.60;99323;;;;566140;249;24098;-80
2023/12/13 08:29:31;;;;;;;10.20;4.83;;;3.50;99.90;2.60;99328;;;;567822;249;24062;-79
2023/12/13 08:31:59;;;;;;;5.97;4.93;;;3.60;99.90;2.60;99326;;;;566042;249;24046;-78
2023/12/13 08:34:27;;;;;;;6.40;4.23;;;3.60;99.90;2.70;99332;;;;565863;249;24073;-78
2023/12/13 08:36:56;;;;;;;6.90;4.13;;;3.70;99.90;2.70;99323;;;;565892;249;25135;-79
2023/12/13 08:39:24;;;;;;;7.43;4.47;;;3.70;99.90;2.70;99327;;;;566025;249;24110;-79
2023/12/13 08:41:52;;;;;;;6.30;3.83;;;3.70;99.90;2.80;99333;;;;565814;249;24059;-80
2023/12/13 08:44:21;;;;;;;3.90;3.30;;;3.80;99.90;2.80;99327;;;;565992;249;24062;-79
2023/12/13 08:46:48;;;;;;;7.30;3.87;;;3.80;99.90;2.90;99326;;;;567863;249;24069;-79
2023/12/13 08:49:19;;;;;;;8.30;5.20;;;3.80;99.90;2.90;99336;;;;568024;249;24075;-79
2023/12/13 08:51:43;;;;;;;6.63;3.93;;;3.90;99.90;2.90;99326;;;;565608;249;24135;-78
2023/12/13 08:54:12;;;;;;;2.53;2.23;;;3.90;99.90;3.00;99332;;;;567675;249;24066;-78
2023/12/13 08:56:39;;;;;;;4.77;3.47;;;3.90;99.90;3.00;99336;;;;566577;249;24047;-78
2023/12/13 08:59:07;;;;;;;4.07;3.20;;;3.90;99.90;3.00;99341;;;;568613;249;24072;-79
2023/12/13 09:01:35;;;;;;;6.07;4.80;;;3.90;99.90;2.90;99343;;;;566884;249;24039;-78
2023/12/13 09:04:03;;;;;;;4.37;2.83;;;3.90;99.90;2.90;99338;;;;565949;249;24091;-80
2023/12/13 09:06:32;;;;;;;16.90;9.30;;;3.90;99.90;2.90;99336;;;;560971;249;35140;-78
2023/12/13 09:08:59;;;;;;;15.00;9.52;;;3.90;99.90;2.90;99339;;;;560922;249;35174;-77
2023/12/13 09:11:27;;;;;;;15.40;10.67;;;3.90;99.90;3.00;99340;;;;562978;249;35117;-84
2023/12/13 09:13:55;;;;;;;10.07;7.13;;;4.00;99.90;3.00;99343;;;;566733;248;24041;-83
2023/12/13 09:16:25;;;;;;;9.07;5.47;;;4.00;99.90;3.00;99341;;;;569346;248;24114;-83
2023/12/13 09:18:52;;;;;;;11.27;5.20;;;4.00;99.90;3.10;99343;;;;567219;248;24046;-83
2023/12/13 09:21:22;;;;;;;4.23;3.83;;;4.10;99.90;3.10;99344;;;;577952;246;24084;-82
2023/12/13 09:23:48;;;;;;;8.00;4.60;;;4.10;99.90;3.10;99339;;;;567047;248;24060;-83
2023/12/13 09:26:19;;;;;;;6.30;4.30;;;4.10;99.90;3.20;99345;;;;568587;248;24122;-81
2023/12/13 09:28:44;;;;;;;11.63;5.97;;;4.10;99.90;3.10;99336;;;;568805;248;24093;-83
2023/12/13 09:31:12;;;;;;;12.07;6.07;;;4.10;99.90;3.10;99337;;;;566404;248;24068;-80
2023/12/13 09:33:41;;;;;;;9.23;5.47;;;4.10;99.90;3.10;99356;;;;565946;249;24065;-78
2023/12/13 09:36:12;;;;;;;8.43;5.93;;;4.10;99.90;3.10;99347;;;;565959;249;24109;-79
2023/12/13 09:38:36;;;;;;;13.13;6.53;;;4.10;99.90;3.10;99348;;;;576750;249;24072;-82
2023/12/13 09:41:08;;;;;;;15.57;8.23;;;4.10;99.90;3.10;99348;;;;566292;249;24122;-83
2023/12/13 09:43:36;;;;;;;12.17;5.77;;;4.10;99.90;3.10;99358;;;;568286;249;25202;-81
2023/12/13 09:46:04;;;;;;;12.10;6.53;;;4.10;99.90;3.10;99350;;;;566386;249;24062;-80
2023/12/13 09:48:32;;;;;;;16.67;8.15;;;4.10;99.90;3.20;99357;;;;563338;249;35167;-79
2023/12/13 09:51:01;;;;;;;14.77;6.50;;;4.10;99.90;3.20;99354;;;;565993;249;24174;-80
2023/12/13 09:53:27;;;;;;;7.87;5.23;;;4.10;99.90;3.20;99346;;;;568350;249;24078;-81
2023/12/13 09:55:57;;;;;;;9.07;4.80;;;4.20;99.90;3.20;99349;;;;571904;248;24137;-79
2023/12/13 09:58:21;;;;;;;11.37;5.77;;;4.10;99.90;3.20;99341;;;;576089;246;24170;-80
2023/12/13 10:00:49;;;;;;;14.70;6.00;;;4.20;99.90;3.30;99343;;;;566148;249;24050;-82
2023/12/13 10:03:17;;;;;;;6.67;3.43;;;4.20;99.90;3.30;99338;;;;568070;249;24058;-79
2023/12/13 10:05:45;;;;;;;10.20;6.33;;;4.30;99.90;3.30;99330;;;;566008;249;24164;-82
2023/12/13 10:08:17;;;;;;;6.97;5.10;;;4.30;99.90;3.30;99340;;;;565724;245;24117;-78
2023/12/13 10:10:47;;;;;;;10.17;5.03;;;4.30;99.90;3.40;99332;;;;565814;249;24085;-82
2023/12/13 10:13:10;;;;;;;4.10;2.93;;;4.30;99.90;3.30;99333;;;;565630;249;24065;-79
2023/12/13 10:15:38;;;;;;;6.50;4.03;;;4.30;99.90;3.30;99328;;;;567702;249;24046;-78
2023/12/13 10:18:05;;;;;;;8.13;4.50;;;4.30;99.90;3.30;99326;;;;565939;249;24197;-81
2023/12/13 10:20:34;;;;;;;7.90;4.73;;;4.30;99.90;3.40;99329;;;;565821;249;24166;-81
2023/12/13 10:23:02;;;;;;;11.50;5.00;;;4.30;99.90;3.40;99323;;;;567428;249;24074;-80
2023/12/13 10:25:30;;;;;;;11.87;6.53;;;4.40;99.90;3.40;99326;;;;568515;248;24051;-77
2023/12/13 10:28:01;;;;;;;26.90;11.67;;;4.40;99.90;3.50;99324;;;;569126;248;24101;-79
2023/12/13 10:30:26;;;;;;;19.17;7.30;;;4.40;99.90;3.50;99320;;;;566331;248;25164;-78
2023/12/13 10:32:53;;;;;;;16.67;5.70;;;4.40;99.90;3.50;99317;;;;568460;248;24094;-79
2023/12/13 10:35:22;;;;;;;8.57;5.37;;;4.40;99.90;3.40;99320;;;;568342;248;24056;-78
2023/12/13 10:37:49;;;;;;;7.00;4.47;;;4.40;99.90;3.40;99324;;;;568201;248;24066;-81
2023/12/13 10:40:21;;;;;;;6.90;3.63;;;4.30;99.90;3.40;99323;;;;568250;248;24063;-79
2023/12/13 10:42:48;;;;;;;11.63;6.13;;;4.30;99.90;3.30;99326;;;;565985;248;24098;-78
2023/12/13 10:45:16;;;;;;;9.43;6.23;;;4.30;99.90;3.40;99331;;;;566028;249;24085;-79
2023/12/13 10:47:44;;;;;;;9.67;5.50;;;4.30;99.90;3.30;99329;;;;566082;249;24073;-79
2023/12/13 10:50:14;;;;;;;7.87;4.60;;;4.30;99.90;3.40;99323;;;;566116;249;24081;-80
2023/12/13 10:52:42;;;;;;;10.93;5.83;;;4.30;99.90;3.30;99322;;;;567743;249;24087;-79
2023/12/13 10:55:10;;;;;;;3.80;2.30;;;4.30;99.90;3.40;99324;;;;571232;246;24101;-80
2023/12/13 10:57:39;;;;;;;7.37;3.87;;;4.30;99.90;3.40;99326;;;;567903;245;24073;-78
2023/12/13 11:00:07;;;;;;;6.10;4.13;;;4.30;99.90;3.30;99317;;;;567943;249;24094;-79
2023/12/13 11:02:40;;;;;;;9.70;5.57;;;4.20;99.90;3.30;99319;;;;576134;246;24109;-81
2023/12/13 11:05:07;;;;;;;10.33;5.57;;;4.20;99.90;3.30;99325;;;;564899;249;24114;-83
2023/12/13 11:07:32;;;;;;;6.23;4.60;;;4.30;99.90;3.30;99324;;;;567173;249;24178;-78
2023/12/13 11:10:00;;;;;;;10.90;5.77;;;4.30;99.90;3.30;99322;;;;563561;249;24101;-78
2023/12/13 11:12:27;;;;;;;9.83;4.10;;;4.30;99.90;3.40;99329;;;;565491;249;24064;-80
2023/12/13 11:14:59;;;;;;;6.30;3.90;;;4.30;99.90;3.40;99322;;;;567490;249;24139;-79
2023/12/13 11:17:24;;;;;;;6.20;3.57;;;4.30;99.90;3.40;99322;;;;567161;249;24073;-79
2023/12/13 11:19:52;;;;;;;3.63;3.00;;;4.30;99.90;3.40;99338;;;;567441;249;25122;-79
2023/12/13 11:22:26;;;;;;;7.10;3.80;;;4.30;99.90;3.30;99323;;;;566467;249;24118;-81
2023/12/13 11:25:06;;;;;;;10.73;4.50;;;4.20;99.90;3.30;99327;;;;565219;249;24159;-80
2023/12/13 11:27:31;;;;;;;5.00;4.23;;;4.20;99.90;3.30;99327;;;;567102;249;24179;-77
2023/12/13 11:30:01;;;;;;;6.47;3.60;;;4.20;99.90;3.20;99327;;;;566836;249;24079;-77